Clipper Mars — LAHZ6 — position and weather

sailwx.info

Track history (hours):
 
Tides and Currents Weather Stations Pressure Air Temp Water Temp Dewpoint Dewpoint Depression Visibility Wind Speed Wind Dir Waves Ship Positions

Clipper Mars

Last reported at 2017-Dec-13 07:32 UTC. Time now 2018-Jan-18 21:22 UTC.
Position N 35°40' E 027°36'.
Warning: this ship's position is 36 days out of date.

Length 205 m; draft 12.1 m.

Type: Tanker. MMSI: 258667000.

Date/timePositionNaut miles runAvg speedWind from/ knotsBaromVisibWave heightAir tempDewpointWater temp
2017-Dec-13 07:32N 35°40' E 027°36'015.1
2017-Dec-13 07:30N 35°41' E 027°35'5413.9
2017-Dec-13 03:37N 36°22' E 026°52'513.1
2017-Dec-13 03:13N 36°26' E 026°48'413.7
2017-Dec-13 02:56N 36°29' E 026°45'613.9
2017-Dec-13 02:30N 36°33' E 026°40'714.0
2017-Dec-13 02:01N 36°40' E 026°40'714.1
2017-Dec-13 01:30N 36°47' E 026°40'714.0
2017-Dec-13 01:01N 36°54' E 026°40'713.9
2017-Dec-13 00:29N 37°02' E 026°38'612.3
2017-Dec-13 00:00N 37°06' E 026°34'713.5
2017-Dec-12 23:30N 37°10' E 026°27'713.8
2017-Dec-12 23:00N 37°13' E 026°19'713.8
2017-Dec-12 22:30N 37°17' E 026°12'713.8
2017-Dec-12 22:01N 37°21' E 026°04'713.4
2017-Dec-12 21:31N 37°24' E 025°57'713.0
2017-Dec-12 21:00N 37°28' E 025°51'713.1
2017-Dec-12 20:30N 37°34' E 025°48'713.2
2017-Dec-12 20:00N 37°40' E 025°45'713.1
2017-Dec-12 19:30N 37°46' E 025°42'713.1
2017-Dec-12 19:01N 37°52' E 025°39'  
2017-Dec-03 15:05N 43°35' E 030°14'114.5
2017-Dec-03 15:00N 43°36' E 030°15'814.6
2017-Dec-03 14:29N 43°43' E 030°19'4014.9
2017-Dec-03 11:49N 44°20' E 030°39'  
Track history (hours):
 
Tides and Currents Weather Stations Pressure Air Temp Water Temp Dewpoint Dewpoint Depression Visibility Wind Speed Wind Dir Waves Ship Positions

Clipper Mars

Last reported at 2017-Dec-13 07:32 UTC. Time now 2018-Jan-18 21:22 UTC.
Position N 35°40' E 027°36'.
Warning: this ship's position is 36 days out of date.

Length 205 m; draft 12.1 m.

Type: Tanker. MMSI: 258667000.

Date/timePositionNaut miles runAvg speedWind from/ knotsBaromVisibWave heightAir tempDewpointWater temp
2017-Dec-13 07:32N 35°40' E 027°36'015.1
2017-Dec-13 07:30N 35°41' E 027°35'5413.9
2017-Dec-13 03:37N 36°22' E 026°52'513.1
2017-Dec-13 03:13N 36°26' E 026°48'413.7
2017-Dec-13 02:56N 36°29' E 026°45'613.9
2017-Dec-13 02:30N 36°33' E 026°40'714.0
2017-Dec-13 02:01N 36°40' E 026°40'714.1
2017-Dec-13 01:30N 36°47' E 026°40'714.0
2017-Dec-13 01:01N 36°54' E 026°40'713.9
2017-Dec-13 00:29N 37°02' E 026°38'612.3
2017-Dec-13 00:00N 37°06' E 026°34'713.5
2017-Dec-12 23:30N 37°10' E 026°27'713.8
2017-Dec-12 23:00N 37°13' E 026°19'713.8
2017-Dec-12 22:30N 37°17' E 026°12'713.8
2017-Dec-12 22:01N 37°21' E 026°04'713.4
2017-Dec-12 21:31N 37°24' E 025°57'713.0
2017-Dec-12 21:00N 37°28' E 025°51'713.1
2017-Dec-12 20:30N 37°34' E 025°48'713.2
2017-Dec-12 20:00N 37°40' E 025°45'713.1
2017-Dec-12 19:30N 37°46' E 025°42'713.1
2017-Dec-12 19:01N 37°52' E 025°39'  
2017-Dec-03 15:05N 43°35' E 030°14'114.5
2017-Dec-03 15:00N 43°36' E 030°15'814.6
2017-Dec-03 14:29N 43°43' E 030°19'4014.9
2017-Dec-03 11:49N 44°20' E 030°39'  

Dump ship's entire track history